Time;durP1;ratioP1;P1;durP2;ratioP2;P2;SDS_P1;SDS_P2;PMS_P1;PMS_P2;Temp;Humidity;BMP_temperature;BMP_pressure;BME280_temperature;BME280_humidity;BME280_pressure;Samples;Min_cycle;Max_cycle;Signal;HPM_P1;HPM_P2
2022/07/01 00:01:31;;;;;;;2.10;1.30;;;;;;;18.53;nan;96088.94;5039973;28;20197;-69
2022/07/01 00:03:58;;;;;;;3.25;1.38;;;;;;;18.55;nan;96086.84;5038671;28;20217;-69
2022/07/01 00:06:25;;;;;;;2.15;1.30;;;;;;;18.53;nan;96078.25;5039730;28;20926;-71
2022/07/01 00:08:52;;;;;;;2.25;1.20;;;;;;;18.44;nan;96084.97;5039919;28;20579;-69
2022/07/01 00:11:19;;;;;;;4.95;1.20;;;;;;;18.49;nan;96082.41;5039622;28;20209;-69
2022/07/01 00:13:46;;;;;;;2.70;1.30;;;;;;;18.53;nan;96076.41;5038443;28;20248;-71
2022/07/01 00:16:13;;;;;;;1.77;1.02;;;;;;;18.48;nan;96084.28;5039842;28;20201;-69
2022/07/01 00:18:39;;;;;;;1.25;1.05;;;;;;;18.57;nan;96082.91;5039789;28;20646;-70
2022/07/01 00:21:06;;;;;;;2.78;1.10;;;;;;;18.42;nan;96082.53;5040360;28;20205;-70
2022/07/01 00:23:33;;;;;;;2.22;1.20;;;;;;;18.47;nan;96084.53;5039534;28;20225;-69
2022/07/01 00:25:59;;;;;;;1.85;1.23;;;;;;;18.56;nan;96110.63;5040644;28;20488;-70
2022/07/01 00:28:27;;;;;;;1.48;1.17;;;;;;;18.88;nan;96127.19;5040862;28;20205;-68
2022/07/01 00:30:54;;;;;;;1.30;1.20;;;;;;;18.56;nan;96147.19;5040056;28;20205;-70
2022/07/01 00:33:20;;;;;;;1.33;1.20;;;;;;;19.01;nan;96157.16;5040669;28;20612;-69
2022/07/01 00:35:47;;;;;;;2.00;1.25;;;;;;;19.20;nan;96164.06;5040441;28;20208;-69
2022/07/01 00:38:13;;;;;;;2.03;1.20;;;;;;;19.19;nan;96162.41;5040535;28;20223;-70
2022/07/01 00:40:40;;;;;;;2.45;1.52;;;;;;;19.20;nan;96150.69;5040283;28;20205;-69
2022/07/01 00:43:06;;;;;;;1.98;1.38;;;;;;;19.17;nan;96156.47;5039627;28;20814;-70
2022/07/01 00:45:34;;;;;;;2.75;1.35;;;;;;;19.33;nan;96156.59;5040008;28;20201;-68
2022/07/01 00:48:01;;;;;;;1.20;1.00;;;;;;;19.01;nan;96163.28;5041023;28;20209;-69
2022/07/01 00:50:28;;;;;;;5.75;1.23;;;;;;;19.11;nan;96170.78;5040247;28;20278;-70
2022/07/01 00:52:55;;;;;;;2.88;1.40;;;;;;;19.31;nan;96180.09;5038674;28;20221;-69
2022/07/01 00:55:21;;;;;;;2.28;1.20;;;;;;;19.12;nan;96183.09;5038046;28;20222;-69
2022/07/01 00:57:48;;;;;;;1.30;1.10;;;;;;;19.33;nan;96167.28;5039145;28;20209;-69
2022/07/01 01:00:18;;;;;;;1.65;1.25;;;;;;;19.43;nan;96177.41;5039267;28;20205;-70
2022/07/01 01:02:46;;;;;;;2.13;1.42;;;;;;;19.32;nan;96176.38;5037467;28;20685;-69
2022/07/01 01:05:12;;;;;;;2.97;1.13;;;;;;;18.89;nan;96183.03;5038302;28;20685;-70
2022/07/01 01:07:39;;;;;;;2.55;1.17;;;;;;;19.05;nan;96179.66;5038745;28;20221;-71
2022/07/01 01:10:06;;;;;;;2.13;1.33;;;;;;;19.05;nan;96174.34;5038617;28;20591;-69
2022/07/01 01:12:34;;;;;;;4.70;1.90;;;;;;;18.88;nan;96173.38;5037540;28;20209;-69
2022/07/01 01:15:00;;;;;;;1.65;1.10;;;;;;;19.03;nan;96163.09;5038360;28;20338;-69
2022/07/01 01:17:27;;;;;;;1.23;1.13;;;;;;;18.62;nan;96170.28;5038659;28;20207;-71
2022/07/01 01:19:55;;;;;;;7.22;1.38;;;;;;;18.52;nan;96156.69;5038261;28;20669;-70
2022/07/01 01:22:23;;;;;;;2.90;1.60;;;;;;;18.92;nan;96169.22;5037069;28;20201;-69
2022/07/01 01:24:50;;;;;;;1.90;1.45;;;;;;;19.00;nan;96172.38;5037677;28;20253;-71
2022/07/01 01:27:17;;;;;;;1.75;1.38;;;;;;;18.80;nan;96165.72;5038226;28;20201;-69
2022/07/01 01:29:44;;;;;;;1.63;1.40;;;;;;;18.66;nan;96132.25;5038027;28;20576;-70
2022/07/01 01:32:11;;;;;;;1.58;1.38;;;;;;;18.59;nan;96114.72;5038238;28;20217;-70
2022/07/01 01:34:39;;;;;;;2.65;1.80;;;;;;;18.42;nan;96106.53;5037100;28;20303;-69
2022/07/01 01:37:07;;;;;;;3.80;1.77;;;;;;;18.44;nan;96109.81;5037200;28;20201;-70
2022/07/01 01:39:36;;;;;;;2.80;1.80;;;;;;;18.64;nan;96126.31;5038059;28;20208;-70
2022/07/01 01:42:04;;;;;;;2.65;1.55;;;;;;;18.42;nan;96133.22;5037889;28;20308;-69
2022/07/01 01:44:30;;;;;;;5.10;1.95;;;;;;;18.35;nan;96124.50;5036701;28;20217;-70
2022/07/01 01:46:57;;;;;;;3.53;1.67;;;;;;;18.33;nan;96119.63;5038018;28;20201;-69
2022/07/01 01:49:23;;;;;;;2.97;1.88;;;;;;;18.30;nan;96102.22;5038034;28;20197;-69
2022/07/01 01:51:50;;;;;;;2.50;1.30;;;;;;;18.14;nan;96094.00;5037924;28;20227;-70
2022/07/01 01:54:16;;;;;;;3.85;1.75;;;;;;;18.20;nan;96101.13;5035953;28;20229;-69
2022/07/01 01:56:44;;;;;;;3.03;1.35;;;;;;;18.20;nan;96093.13;5037754;28;20201;-70
2022/07/01 01:59:12;;;;;;;3.90;1.67;;;;;;;18.23;nan;96103.34;5037628;28;20708;-70
2022/07/01 02:01:39;;;;;;;2.53;1.63;;;;;;;18.26;nan;96103.69;5037849;28;20263;-69
2022/07/01 02:04:06;;;;;;;3.00;1.65;;;;;;;18.31;nan;96116.38;5036934;28;20586;-69
2022/07/01 02:06:32;;;;;;;5.05;1.88;;;;;;;18.36;nan;96110.09;5037299;28;20201;-70
2022/07/01 02:08:58;;;;;;;3.58;1.45;;;;;;;18.36;nan;96104.78;5037171;28;20209;-69
2022/07/01 02:11:25;;;;;;;2.15;1.25;;;;;;;18.24;nan;96105.81;5037911;28;20201;-69
2022/07/01 02:13:53;;;;;;;4.22;1.85;;;;;;;18.39;nan;96116.84;5037396;28;20217;-70
2022/07/01 02:16:19;;;;;;;3.05;1.65;;;;;;;18.37;nan;96125.09;5037464;28;20673;-71
2022/07/01 02:18:46;;;;;;;3.35;1.70;;;;;;;18.38;nan;96136.59;5036676;28;20197;-70
2022/07/01 02:21:12;;;;;;;3.25;1.80;;;;;;;18.25;nan;96149.28;5036719;28;20669;-71
2022/07/01 02:23:39;;;;;;;4.60;1.88;;;;;;;18.24;nan;96143.16;5036907;28;20225;-69
2022/07/01 02:26:06;;;;;;;3.25;1.73;;;;;;;18.55;nan;96151.72;5036733;28;20201;-69
2022/07/01 02:28:33;;;;;;;3.40;1.80;;;;;;;18.46;nan;96162.94;5037126;28;20261;-70
2022/07/01 02:31:02;;;;;;;2.78;1.58;;;;;;;18.53;nan;96160.97;5037386;28;20197;-69
2022/07/01 02:33:28;;;;;;;1.90;1.55;;;;;;;18.63;nan;96153.25;5036352;28;20217;-69
2022/07/01 02:35:55;;;;;;;2.83;1.88;;;;;;;18.74;nan;96171.97;5036648;28;20236;-71
2022/07/01 02:38:21;;;;;;;2.80;1.90;;;;;;;18.81;nan;96183.34;5036917;28;20212;-70
2022/07/01 02:40:48;;;;;;;2.72;2.10;;;;;;;18.96;nan;96191.72;5036655;28;20666;-70
2022/07/01 02:43:15;;;;;;;3.42;1.92;;;;;;;18.71;nan;96196.44;5036241;28;20221;-69
2022/07/01 02:45:42;;;;;;;5.07;2.03;;;;;;;18.78;nan;96199.81;5036980;28;21027;-70
2022/07/01 02:48:10;;;;;;;2.65;1.70;;;;;;;18.58;nan;96203.81;5036267;28;20197;-71
2022/07/01 02:50:37;;;;;;;2.10;1.90;;;;;;;18.87;nan;96209.13;5037637;28;20234;-70
2022/07/01 02:53:04;;;;;;;2.42;1.63;;;;;;;18.79;nan;96219.31;5036834;28;20224;-70
2022/07/01 02:55:30;;;;;;;2.45;1.88;;;;;;;18.65;nan;96217.91;5037036;28;21113;-69
2022/07/01 02:57:57;;;;;;;5.07;1.90;;;;;;;18.62;nan;96229.00;5037703;28;20581;-69
2022/07/01 03:00:25;;;;;;;4.57;2.15;;;;;;;18.59;nan;96232.94;5034713;28;20201;-69
2022/07/01 03:02:51;;;;;;;3.22;2.13;;;;;;;18.51;nan;96222.59;5036615;28;20314;-70
2022/07/01 03:05:19;;;;;;;3.28;2.28;;;;;;;18.74;nan;96225.34;5036241;28;20595;-68
2022/07/01 03:07:46;;;;;;;3.47;1.40;;;;;;;18.21;nan;96220.13;5037672;28;20216;-69
2022/07/01 03:10:12;;;;;;;2.55;1.20;;;;;;;17.95;nan;96221.22;5037999;28;20201;-69
2022/07/01 03:12:40;;;;;;;1.23;0.90;;;;;;;17.56;nan;96218.16;5036465;28;20204;-68
2022/07/01 03:15:08;;;;;;;2.65;1.10;;;;;;;17.59;nan;96209.75;5036998;28;20252;-69
2022/07/01 03:17:36;;;;;;;2.67;1.20;;;;;;;17.36;nan;96200.72;5038137;28;20200;-69
2022/07/01 03:20:04;;;;;;;1.40;1.10;;;;;;;17.29;nan;96194.66;5038015;28;20201;-70
2022/07/01 03:22:34;;;;;;;1.92;1.10;;;;;;;17.32;nan;96180.91;5037386;28;20197;-69
2022/07/01 03:25:00;;;;;;;1.38;1.02;;;;;;;17.34;nan;96184.16;5038434;28;20236;-69
2022/07/01 03:27:27;;;;;;;1.85;1.13;;;;;;;17.28;nan;96169.84;5037484;28;20775;-68
2022/07/01 03:29:54;;;;;;;1.92;1.10;;;;;;;17.24;nan;96168.66;5037475;28;20746;-69
2022/07/01 03:32:20;;;;;;;3.75;0.75;;;;;;;17.11;nan;96155.44;5037404;28;20205;-69
2022/07/01 03:34:50;;;;;;;1.27;0.57;;;;;;;17.04;nan;96147.75;5037626;28;20233;-70
2022/07/01 03:37:17;;;;;;;0.82;0.73;;;;;;;16.94;nan;96142.94;5037120;28;20208;-69
2022/07/01 03:39:46;;;;;;;0.65;0.65;;;;;;;16.89;nan;96137.44;5038076;28;20220;-68
2022/07/01 03:42:13;;;;;;;1.05;0.90;;;;;;;16.79;nan;96133.63;5037250;28;20649;-68
2022/07/01 03:44:40;;;;;;;1.10;0.82;;;;;;;16.88;nan;96127.00;5038138;28;20218;-69
2022/07/01 03:47:06;;;;;;;2.45;1.08;;;;;;;16.92;nan;96138.84;5038379;28;20238;-69
2022/07/01 03:49:33;;;;;;;1.70;1.10;;;;;;;16.74;nan;96136.16;5038531;28;20216;-70
2022/07/01 03:52:00;;;;;;;0.82;0.80;;;;;;;16.66;nan;96163.00;5038404;28;20551;-70
2022/07/01 03:54:38;;;;;;;1.85;1.02;;;;;;;16.54;nan;96196.66;5037888;28;20221;-69
2022/07/01 03:57:08;;;;;;;1.70;1.10;;;;;;;16.22;nan;96229.53;5038651;28;20907;-69
2022/07/01 03:59:36;;;;;;;3.97;1.10;;;;;;;15.87;nan;96246.84;5037697;28;20237;-68
2022/07/01 04:02:04;;;;;;;1.35;1.02;;;;;;;15.62;nan;96260.19;5037982;28;20205;-69
2022/07/01 04:04:31;;;;;;;1.50;1.10;;;;;;;15.66;nan;96269.38;5037068;28;20232;-70
2022/07/01 04:06:59;;;;;;;2.03;1.10;;;;;;;15.61;nan;96258.56;5035403;28;20662;-69
2022/07/01 04:09:26;;;;;;;4.47;1.30;;;;;;;15.49;nan;96265.50;5035737;28;20657;-70
2022/07/01 04:11:54;;;;;;;2.03;1.17;;;;;;;15.40;nan;96280.00;5035495;28;20209;-69
2022/07/01 04:14:23;;;;;;;3.38;1.20;;;;;;;15.20;nan;96299.59;5034869;28;20223;-69
2022/07/01 04:16:50;;;;;;;6.13;1.30;;;;;;;15.21;nan;96315.38;5036317;28;20201;-69
2022/07/01 04:19:19;;;;;;;1.23;1.08;;;;;;;15.39;nan;96313.72;5039876;28;20539;-69
2022/07/01 04:24:32;;;;;;;2.97;1.15;;;;;;;15.33;nan;96295.94;5038476;28;20240;-70
2022/07/01 04:27:00;;;;;;;1.17;0.98;;;;;;;15.36;nan;96292.06;5039220;28;21119;-70
2022/07/01 04:29:28;;;;;;;1.00;0.90;;;;;;;15.23;nan;96300.03;5039337;28;21145;-71
2022/07/01 04:31:55;;;;;;;1.35;0.70;;;;;;;15.05;nan;96314.91;5038852;28;20243;-70
2022/07/01 04:34:21;;;;;;;2.78;0.75;;;;;;;15.16;nan;96317.78;5038990;28;20232;-69
2022/07/01 04:36:48;;;;;;;0.95;0.70;;;;;;;15.17;nan;96303.47;5038805;28;20213;-70
2022/07/01 04:39:14;;;;;;;3.85;0.60;;;;;;;15.06;nan;96316.53;5039167;28;20228;-70
2022/07/01 04:44:25;;;;;;;1.48;0.70;;;;;;;14.86;nan;96326.31;5038202;28;20282;-69
2022/07/01 04:46:53;;;;;;;0.88;0.70;;;;;;;14.89;nan;96337.34;5039003;28;20197;-69
2022/07/01 04:49:20;;;;;;;3.22;1.02;;;;;;;14.93;nan;96346.53;5038901;28;20740;-70
2022/07/01 04:51:46;;;;;;;0.85;0.60;;;;;;;14.79;nan;96349.34;5038969;28;20200;-70
2022/07/01 04:54:13;;;;;;;2.45;0.70;;;;;;;14.88;nan;96361.41;5038048;28;20225;-69
2022/07/01 04:56:39;;;;;;;2.30;0.70;;;;;;;14.99;nan;96356.31;5038748;28;20216;-69
2022/07/01 04:59:06;;;;;;;0.93;0.82;;;;;;;15.15;nan;96350.66;5038648;28;20255;-69
2022/07/01 05:01:33;;;;;;;0.75;0.75;;;;;;;15.25;nan;96354.56;5038972;28;20712;-69
2022/07/01 05:04:00;;;;;;;1.45;0.88;;;;;;;15.50;nan;96349.47;5037737;28;20709;-69
2022/07/01 05:06:27;;;;;;;1.02;0.80;;;;;;;15.29;nan;96349.69;5038920;28;20197;-70
2022/07/01 05:08:54;;;;;;;2.15;0.98;;;;;;;15.22;nan;96356.81;5038242;28;20241;-69
2022/07/01 05:11:20;;;;;;;1.00;0.90;;;;;;;15.12;nan;96351.06;5038228;28;20205;-68
2022/07/01 05:13:46;;;;;;;1.60;0.90;;;;;;;15.11;nan;96361.84;5037597;28;20225;-70
2022/07/01 05:16:13;;;;;;;1.17;0.90;;;;;;;15.14;nan;96372.91;5038431;28;20228;-69
2022/07/01 05:24:10;;;;;;;1.85;0.90;;;;;;;15.14;nan;96372.91;5036692;28;21017;-70
2022/07/01 05:26:36;;;;;;;1.58;1.00;;;;;;;15.17;nan;96380.44;5038091;28;20197;-68
2022/07/01 05:29:03;;;;;;;1.42;0.90;;;;;;;14.99;nan;96377.56;5036906;28;21070;-69
2022/07/01 05:31:30;;;;;;;4.75;0.90;;;;;;;15.31;nan;96382.97;5037893;28;20208;-69
2022/07/01 05:33:57;;;;;;;1.00;0.90;;;;;;;15.33;nan;96386.22;5037616;28;20221;-70
2022/07/01 05:36:23;;;;;;;1.58;1.10;;;;;;;15.29;nan;96387.66;5037962;28;20221;-68
2022/07/01 05:38:51;;;;;;;2.00;1.20;;;;;;;15.39;nan;96389.94;5037487;28;20722;-69
2022/07/01 05:41:18;;;;;;;1.30;1.08;;;;;;;15.13;nan;96384.53;5038298;28;20209;-68
2022/07/01 05:43:45;;;;;;;0.98;0.88;;;;;;;15.23;nan;96384.19;5037109;28;20229;-68
2022/07/01 05:46:11;;;;;;;4.43;1.10;;;;;;;15.26;nan;96381.94;5037606;28;20200;-69
2022/07/01 05:48:38;;;;;;;2.13;1.17;;;;;;;15.31;nan;96382.16;5038059;28;20689;-69
2022/07/01 05:51:04;;;;;;;1.77;1.20;;;;;;;15.20;nan;96381.88;5037686;28;20200;-68
2022/07/01 05:53:31;;;;;;;1.98;1.10;;;;;;;15.11;nan;96375.97;5036751;28;20696;-69
2022/07/01 05:55:59;;;;;;;1.50;1.20;;;;;;;15.22;nan;96380.69;5037739;28;20280;-68
2022/07/01 05:58:25;;;;;;;2.58;1.30;;;;;;;15.10;nan;96382.28;5037483;28;20220;-69
2022/07/01 06:00:52;;;;;;;1.67;1.27;;;;;;;15.05;nan;96390.03;5037766;28;20197;-68
2022/07/01 06:03:18;;;;;;;1.85;1.17;;;;;;;15.21;nan;96400.31;5036123;28;20690;-70
2022/07/01 06:05:45;;;;;;;2.83;1.05;;;;;;;15.11;nan;96407.81;5037582;28;20211;-69
2022/07/01 06:08:11;;;;;;;2.22;1.23;;;;;;;15.02;nan;96410.84;5037559;28;20197;-69
2022/07/01 06:10:38;;;;;;;2.05;1.00;;;;;;;15.20;nan;96419.06;5037333;28;20205;-69
2022/07/01 06:13:06;;;;;;;1.77;1.00;;;;;;;15.07;nan;96409.25;5037396;28;20355;-69
2022/07/01 06:15:33;;;;;;;1.52;1.20;;;;;;;15.16;nan;96418.66;5039325;28;20756;-68
2022/07/01 06:18:00;;;;;;;4.28;1.77;;;;;;;14.98;nan;96414.91;5039585;28;20211;-68
2022/07/01 06:20:27;;;;;;;1.77;1.33;;;;;;;15.04;nan;96414.94;5039929;28;20201;-69
2022/07/01 06:22:53;;;;;;;2.15;1.60;;;;;;;14.91;nan;96430.00;5038994;28;20696;-67
2022/07/01 06:25:20;;;;;;;2.28;1.50;;;;;;;14.70;nan;96444.22;5037659;28;20201;-67
2022/07/01 06:27:46;;;;;;;2.83;1.90;;;;;;;14.84;nan;96460.97;5038202;28;20989;-69
2022/07/01 06:30:14;;;;;;;1.92;1.55;;;;;;;14.79;nan;96480.16;5038200;28;20205;-68
2022/07/01 06:32:41;;;;;;;1.67;1.42;;;;;;;14.83;nan;96480.59;5037825;28;20212;-68
2022/07/01 06:35:08;;;;;;;1.27;1.17;;;;;;;14.73;nan;96472.97;5037718;28;20201;-69
2022/07/01 06:37:35;;;;;;;5.03;1.70;;;;;;;14.74;nan;96477.28;5037964;28;20208;-68
2022/07/01 06:40:03;;;;;;;1.83;1.40;;;;;;;14.70;nan;96481.34;5037220;28;20201;-68
2022/07/01 06:42:29;;;;;;;2.38;1.40;;;;;;;14.84;nan;96477.75;5036423;28;20205;-69
2022/07/01 06:44:56;;;;;;;1.90;1.60;;;;;;;14.87;nan;96477.34;5037132;28;20196;-69
2022/07/01 06:47:23;;;;;;;2.25;1.98;;;;;;;14.97;nan;96461.03;5037623;28;20197;-68
2022/07/01 06:49:50;;;;;;;2.42;1.50;;;;;;;14.90;nan;96468.97;5037069;28;20198;-67
2022/07/01 06:52:17;;;;;;;2.17;1.60;;;;;;;14.85;nan;96475.91;5035778;28;20656;-68
2022/07/01 06:54:43;;;;;;;2.63;1.52;;;;;;;14.86;nan;96481.00;5036587;28;21110;-67
2022/07/01 06:57:10;;;;;;;2.70;1.80;;;;;;;14.82;nan;96493.03;5037257;28;20220;-69
2022/07/01 06:59:36;;;;;;;4.10;1.58;;;;;;;14.93;nan;96494.28;5039817;28;20212;-68
2022/07/01 07:02:05;;;;;;;3.30;1.73;;;;;;;14.93;nan;96486.34;5038874;28;20212;-67
2022/07/01 07:04:33;;;;;;;3.10;1.42;;;;;;;15.18;nan;96479.50;5038973;28;20689;-67
2022/07/01 07:07:00;;;;;;;3.08;1.45;;;;;;;15.02;nan;96488.63;5040136;28;20197;-68
2022/07/01 07:09:27;;;;;;;2.20;1.80;;;;;;;15.06;nan;96492.53;5040727;28;20220;-68
2022/07/01 07:11:53;;;;;;;3.75;1.50;;;;;;;15.19;nan;96492.56;5039089;28;20205;-67
2022/07/01 07:14:20;;;;;;;1.70;1.00;;;;;;;15.03;nan;96502.72;5038192;28;20594;-68
2022/07/01 07:16:46;;;;;;;1.33;1.08;;;;;;;14.97;nan;96503.50;5039024;28;20236;-68
2022/07/01 07:19:13;;;;;;;1.75;1.00;;;;;;;15.06;nan;96486.38;5040499;28;20574;-67
2022/07/01 07:21:40;;;;;;;1.02;0.93;;;;;;;15.13;nan;96488.06;5041265;28;20213;-68
2022/07/01 07:24:07;;;;;;;1.25;0.95;;;;;;;15.42;nan;96490.44;5039577;28;20229;-68
2022/07/01 07:26:34;;;;;;;1.23;0.90;;;;;;;15.34;nan;96493.28;5039395;28;20197;-68
2022/07/01 07:29:00;;;;;;;4.55;1.17;;;;;;;15.21;nan;96501.22;5040059;28;20205;-68
2022/07/01 07:31:27;;;;;;;2.28;1.10;;;;;;;15.29;nan;96498.38;5040051;28;20193;-68
2022/07/01 07:33:53;;;;;;;1.00;0.90;;;;;;;15.23;nan;96506.31;5039990;28;20234;-68
2022/07/01 07:36:20;;;;;;;1.10;0.93;;;;;;;15.14;nan;96508.28;5039928;28;20217;-68
2022/07/01 07:38:47;;;;;;;1.65;1.10;;;;;;;15.33;nan;96503.06;5039591;28;20213;-68
2022/07/01 07:41:14;;;;;;;2.13;1.00;;;;;;;15.21;nan;96506.53;5039357;28;20201;-68
2022/07/01 07:43:40;;;;;;;1.20;1.00;;;;;;;15.24;nan;96507.97;5038585;28;20228;-69
2022/07/01 07:46:07;;;;;;;1.05;0.93;;;;;;;15.20;nan;96518.13;5037741;28;20213;-68
2022/07/01 07:48:33;;;;;;;1.30;1.00;;;;;;;15.02;nan;96517.84;5038662;28;20205;-68
2022/07/01 07:50:59;;;;;;;1.08;0.90;;;;;;;15.11;nan;96516.66;5038890;28;20331;-68
2022/07/01 07:53:26;;;;;;;1.23;0.95;;;;;;;15.02;nan;96523.16;5041451;28;20232;-68
2022/07/01 07:55:54;;;;;;;0.85;0.80;;;;;;;15.22;nan;96521.41;5041904;28;20224;-68
2022/07/01 07:58:20;;;;;;;1.50;1.10;;;;;;;15.30;nan;96515.94;5040437;28;20208;-68
2022/07/01 08:00:47;;;;;;;2.58;1.00;;;;;;;15.25;nan;96524.50;5041798;28;20205;-68
2022/07/01 08:03:13;;;;;;;1.33;1.10;;;;;;;15.13;nan;96524.41;5041090;28;20225;-68
2022/07/01 08:05:40;;;;;;;2.38;0.95;;;;;;;15.18;nan;96536.06;5041891;28;20206;-68
2022/07/01 08:08:06;;;;;;;1.05;0.90;;;;;;;15.20;nan;96544.66;5039842;28;20205;-68
2022/07/01 08:10:33;;;;;;;1.25;0.90;;;;;;;15.22;nan;96550.59;5040190;28;20559;-69
2022/07/01 08:13:04;;;;;;;3.08;1.25;;;;;;;15.26;nan;96546.53;5040904;28;20315;-69
2022/07/01 08:15:30;;;;;;;0.65;0.65;;;;;;;15.07;nan;96549.91;5039481;28;20747;-68
2022/07/01 08:17:57;;;;;;;1.40;0.80;;;;;;;15.09;nan;96550.53;5039101;28;20197;-68
2022/07/01 08:20:24;;;;;;;1.30;0.90;;;;;;;15.07;nan;96539.31;5040495;28;20292;-68
2022/07/01 08:22:50;;;;;;;3.60;1.00;;;;;;;15.30;nan;96543.31;5039086;28;20224;-69
2022/07/01 08:25:17;;;;;;;1.00;0.90;;;;;;;15.35;nan;96548.84;5039723;28;20416;-68
2022/07/01 08:27:43;;;;;;;1.00;0.90;;;;;;;15.26;nan;96546.53;5040255;28;20209;-68
2022/07/01 08:30:12;;;;;;;1.45;0.77;;;;;;;15.47;nan;96555.22;5040200;28;20691;-67
2022/07/01 08:32:39;;;;;;;1.52;0.60;;;;;;;15.35;nan;96550.66;5039090;28;20201;-69
2022/07/01 08:35:06;;;;;;;0.82;0.80;;;;;;;15.41;nan;96552.53;5039578;28;20205;-68
2022/07/01 08:37:32;;;;;;;1.00;0.90;;;;;;;15.49;nan;96544.38;5039207;28;20221;-69
2022/07/01 08:39:59;;;;;;;3.03;0.88;;;;;;;15.68;nan;96536.50;5039112;28;20244;-69
2022/07/01 08:42:26;;;;;;;0.93;0.80;;;;;;;15.79;nan;96535.06;5039373;28;20217;-68
2022/07/01 08:44:53;;;;;;;1.40;0.80;;;;;;;15.80;nan;96537.53;5040070;28;20208;-68
2022/07/01 08:47:20;;;;;;;1.58;0.70;;;;;;;15.96;nan;96530.00;5039771;28;20243;-69
2022/07/01 08:49:47;;;;;;;1.00;0.75;;;;;;;15.78;nan;96534.25;5039580;28;20216;-69
2022/07/01 08:52:14;;;;;;;1.38;0.70;;;;;;;15.66;nan;96533.19;5039434;28;20200;-67
2022/07/01 08:54:41;;;;;;;1.15;0.80;;;;;;;15.64;nan;96550.38;5038332;28;20264;-68
2022/07/01 08:57:08;;;;;;;1.00;0.68;;;;;;;15.63;nan;96543.41;5039312;28;20713;-68
2022/07/01 08:59:35;;;;;;;0.50;0.50;;;;;;;15.49;nan;96542.56;5039044;28;20228;-68
2022/07/01 09:02:04;;;;;;;1.35;0.70;;;;;;;15.55;nan;96539.09;5039329;28;20212;-67
2022/07/01 09:04:33;;;;;;;1.13;0.73;;;;;;;15.69;nan;96537.28;5037138;28;20232;-68
2022/07/01 09:07:04;;;;;;;1.48;0.85;;;;;;;15.55;nan;96538.28;5039301;28;21095;-68
2022/07/01 09:09:36;;;;;;;1.60;0.80;;;;;;;15.68;nan;96535.66;5038629;28;20228;-69
2022/07/01 09:12:03;;;;;;;1.40;0.90;;;;;;;15.46;nan;96540.28;5037176;28;20208;-69
2022/07/01 09:14:31;;;;;;;0.82;0.80;;;;;;;15.54;nan;96545.44;5037177;28;20236;-69
2022/07/01 09:16:59;;;;;;;1.92;0.90;;;;;;;15.66;nan;96543.84;5037814;28;20691;-68
2022/07/01 09:19:27;;;;;;;1.67;0.88;;;;;;;15.69;nan;96551.38;5037557;28;20559;-69
2022/07/01 09:22:00;;;;;;;2.97;0.95;;;;;;;15.80;nan;96557.97;5037522;28;20224;-69
2022/07/01 09:24:30;;;;;;;1.60;1.10;;;;;;;15.61;nan;96558.75;5038085;28;20224;-69
2022/07/01 09:26:59;;;;;;;0.75;0.63;;;;;;;15.40;nan;96572.13;5037762;28;20513;-68
2022/07/01 09:29:28;;;;;;;1.23;0.70;;;;;;;15.35;nan;96571.91;5037683;28;20581;-68
2022/07/01 09:31:54;;;;;;;0.95;0.90;;;;;;;15.36;nan;96578.84;5037378;28;20201;-69
2022/07/01 09:34:22;;;;;;;1.05;0.70;;;;;;;15.48;nan;96574.63;5036925;28;20565;-69
2022/07/01 09:36:55;;;;;;;0.70;0.70;;;;;;;15.60;nan;96581.81;5036926;28;20221;-69
2022/07/01 09:39:21;;;;;;;0.52;0.52;;;;;;;15.51;nan;96592.81;5037805;28;20531;-69
2022/07/01 09:41:48;;;;;;;1.05;0.85;;;;;;;15.31;nan;96591.91;5037264;28;20237;-69
2022/07/01 09:44:15;;;;;;;1.00;0.90;;;;;;;15.43;nan;96583.19;5036692;28;20221;-69
2022/07/01 09:46:52;;;;;;;1.23;0.80;;;;;;;15.29;nan;96604.56;5036771;28;20201;-69
2022/07/01 09:49:19;;;;;;;2.03;0.80;;;;;;;15.28;nan;96587.00;5037170;28;20254;-69
2022/07/01 09:51:45;;;;;;;1.00;0.80;;;;;;;15.15;nan;96594.88;5036924;28;20209;-68
2022/07/01 09:54:14;;;;;;;0.90;0.80;;;;;;;15.35;nan;96599.28;5036571;28;20240;-69
2022/07/01 09:56:40;;;;;;;0.90;0.80;;;;;;;15.31;nan;96616.66;5036482;28;20229;-69
2022/07/01 09:59:07;;;;;;;0.75;0.70;;;;;;;15.44;nan;96608.72;5036713;28;20217;-68
2022/07/01 10:01:33;;;;;;;1.27;0.70;;;;;;;15.64;nan;96612.28;5036945;28;20216;-69
2022/07/01 10:04:02;;;;;;;1.02;0.90;;;;;;;15.80;nan;96603.16;5036681;28;20540;-68
2022/07/01 10:06:59;;;;;;;1.23;0.93;;;;;;;15.84;nan;96609.72;5036741;28;20219;-69
2022/07/01 10:09:52;;;;;;;1.00;0.75;;;;;;;15.65;nan;96613.09;5035594;28;20201;-69
2022/07/01 10:12:37;;;;;;;1.13;0.85;;;;;;;15.63;nan;96615.97;5036083;28;20201;-69
2022/07/01 10:15:06;;;;;;;2.03;1.00;;;;;;;15.64;nan;96606.97;5036037;28;20201;-69
2022/07/01 10:17:36;;;;;;;1.17;0.80;;;;;;;15.80;nan;96613.78;5037172;28;20217;-68
2022/07/01 10:20:15;;;;;;;1.17;0.73;;;;;;;15.84;nan;96606.00;5037154;28;20205;-68
2022/07/01 10:22:42;;;;;;;0.95;0.70;;;;;;;15.60;nan;96610.22;5035975;28;20205;-69
2022/07/01 10:25:34;;;;;;;1.02;0.80;;;;;;;15.80;nan;96627.06;5035596;28;20701;-68
2022/07/01 10:28:34;;;;;;;0.90;0.80;;;;;;;15.77;nan;96622.13;5036908;28;20197;-68
2022/07/01 10:31:04;;;;;;;2.38;0.93;;;;;;;15.78;nan;96632.56;5022495;28;20205;-69
2022/07/01 10:33:43;;;;;;;1.20;0.90;;;;;;;15.93;nan;96631.38;5035313;28;20221;-69
2022/07/01 10:36:26;;;;;;;0.80;0.60;;;;;;;16.10;nan;96611.41;5036960;28;20216;-69
2022/07/01 10:39:22;;;;;;;0.95;0.70;;;;;;;16.12;nan;96621.84;5036224;28;20205;-68
2022/07/01 10:41:58;;;;;;;1.63;0.90;;;;;;;16.21;nan;96613.44;5035782;28;20451;-69
2022/07/01 10:44:27;;;;;;;0.90;0.80;;;;;;;16.09;nan;96615.06;5035086;28;20225;-69
2022/07/01 10:46:57;;;;;;;1.73;0.88;;;;;;;16.14;nan;96617.97;5036356;28;20208;-69
2022/07/01 10:49:59;;;;;;;1.23;0.70;;;;;;;16.31;nan;96621.91;5036161;28;20197;-69
2022/07/01 10:52:27;;;;;;;1.65;0.88;;;;;;;16.00;nan;96618.94;5029693;28;20451;-69
2022/07/01 10:54:55;;;;;;;1.60;0.95;;;;;;;16.07;nan;96613.63;5036611;28;20212;-68
2022/07/01 10:57:42;;;;;;;1.48;0.80;;;;;;;16.02;nan;96616.88;5036148;28;20388;-69
2022/07/01 11:00:32;;;;;;;1.05;0.70;;;;;;;16.17;nan;96612.22;5035051;28;20299;-69
2022/07/01 11:03:17;;;;;;;0.85;0.68;;;;;;;16.20;nan;96606.50;5035011;28;20232;-69
2022/07/01 11:05:45;;;;;;;0.95;0.70;;;;;;;15.99;nan;96619.97;5035753;28;20205;-69
2022/07/01 11:08:12;;;;;;;0.90;0.60;;;;;;;15.88;nan;96617.91;5035438;28;20474;-69
2022/07/01 11:10:40;;;;;;;1.10;0.75;;;;;;;15.95;nan;96629.34;5036369;28;20201;-69
2022/07/01 11:13:08;;;;;;;0.73;0.60;;;;;;;16.02;nan;96622.19;5035009;28;20625;-68
2022/07/01 11:15:35;;;;;;;1.02;0.85;;;;;;;16.19;nan;96620.00;5035522;28;20197;-69
2022/07/01 11:18:03;;;;;;;1.20;0.70;;;;;;;16.21;nan;96621.44;5036195;28;20224;-69
2022/07/01 11:20:32;;;;;;;1.30;0.68;;;;;;;16.35;nan;96631.09;5035696;28;20205;-69
2022/07/01 11:22:59;;;;;;;1.95;0.70;;;;;;;16.20;nan;96642.91;5034788;28;20221;-69
2022/07/01 11:25:26;;;;;;;1.00;0.80;;;;;;;16.11;nan;96628.16;5035618;28;20205;-69
2022/07/01 11:27:52;;;;;;;0.80;0.80;;;;;;;15.87;nan;96637.50;5038254;28;20661;-69
2022/07/01 11:30:22;;;;;;;2.85;0.88;;;;;;;16.04;nan;96622.84;5039937;28;20676;-69
2022/07/01 11:32:50;;;;;;;2.83;0.82;;;;;;;16.15;nan;96635.56;5038688;28;20224;-69
2022/07/01 11:40:54;;;;;;;0.77;0.68;;;;;;;16.13;nan;96645.56;5039710;28;20604;-69
2022/07/01 11:43:23;;;;;;;0.90;0.65;;;;;;;16.36;nan;96637.25;5038718;28;20220;-69
2022/07/01 11:45:51;;;;;;;3.20;0.80;;;;;;;16.41;nan;96638.28;5039129;28;20220;-69
2022/07/01 11:48:32;;;;;;;0.75;0.70;;;;;;;16.36;nan;96659.34;5039471;28;20748;-69
2022/07/01 11:51:00;;;;;;;2.25;0.90;;;;;;;16.13;nan;96663.38;5040470;28;20649;-69
2022/07/01 11:53:27;;;;;;;1.98;0.80;;;;;;;15.77;nan;96667.31;5039041;28;20232;-69
2022/07/01 11:55:54;;;;;;;0.90;0.70;;;;;;;15.48;nan;96686.19;5038637;28;20421;-69
2022/07/01 11:58:20;;;;;;;2.45;0.90;;;;;;;15.35;nan;96700.22;5039086;28;20727;-68
2022/07/01 12:00:47;;;;;;;0.93;0.80;;;;;;;15.58;nan;96697.25;5039858;28;20670;-68
2022/07/01 12:03:29;;;;;;;1.30;0.57;;;;;;;15.47;nan;96697.81;5042615;28;20591;-68
2022/07/01 12:05:55;;;;;;;2.15;1.02;;;;;;;15.44;nan;96698.19;5040247;28;20208;-68
2022/07/01 12:08:22;;;;;;;2.45;0.80;;;;;;;15.63;nan;96692.19;5039248;28;20220;-69
2022/07/01 12:10:48;;;;;;;1.33;0.90;;;;;;;15.75;nan;96706.56;5039064;28;20201;-69
2022/07/01 12:13:22;;;;;;;1.40;0.80;;;;;;;15.82;nan;96702.91;5038475;28;20220;-69